McKinley Park, Alaska
Current Conditions -  °F | °C
As of 4:56 AM on Monday 24 Nov 2014 (Local Time) from PAIN Reporting Station
Few Clouds Few Clouds  
Wind Chill: 19°   Ceiling: Unl
Heat Index: 19°   Visibility: 10mi
Dew Point: 18°   Wind: 0mph
Humidity: 93%   Direction: NA
Pressure: 29.57"   Gusts: NA
Location:  63.73°N, 148.91°W
Report Text: PAIN 241356Z AUTO 00000KT 10SM FEW080 M07/M08 A2957 RMK AO1
Loading
Personal Weather Stations






























Interactive Weather Map New forecast layout! Learn more

10-Day Weather Forecast

Advertisements
Track Severe Weather on mobile